Time;durP1;ratioP1;P1;durP2;ratioP2;P2;SDS_P1;SDS_P2;PMS_P1;PMS_P2;Temp;Humidity;BMP_temperature;BMP_pressure;BME280_temperature;BME280_humidity;BME280_pressure;Samples;Min_cycle;Max_cycle;Signal;HPM_P1;HPM_P2
2023/06/19 00:01:13;;;;;;;13.80;12.37;;;;;;;15.11;100.00;95991.00;7429144;19;20385;-78
2023/06/19 00:03:40;;;;;;;13.03;11.80;;;;;;;15.29;100.00;96000.72;7432324;19;20472;-78
2023/06/19 00:06:07;;;;;;;15.43;13.47;;;;;;;15.32;100.00;96010.63;7427514;19;20423;-78
2023/06/19 00:08:36;;;;;;;14.47;13.20;;;;;;;15.41;100.00;96014.91;7427935;19;20440;-78
2023/06/19 00:11:03;;;;;;;15.23;13.77;;;;;;;15.21;100.00;95993.00;7428853;19;20343;-78
2023/06/19 00:13:30;;;;;;;13.97;12.50;;;;;;;15.20;100.00;95989.56;7428652;19;20423;-78
2023/06/19 00:16:00;;;;;;;13.97;12.57;;;;;;;15.40;100.00;95995.50;7426883;19;20441;-78
2023/06/19 00:18:28;;;;;;;15.00;13.23;;;;;;;15.54;100.00;96013.53;7433026;19;20387;-77
2023/06/19 00:20:56;;;;;;;13.37;12.00;;;;;;;15.37;100.00;95974.94;7428656;19;20344;-77
2023/06/19 00:23:23;;;;;;;14.13;12.87;;;;;;;15.60;100.00;96012.09;7413978;19;20791;-77
2023/06/19 00:25:50;;;;;;;15.03;13.73;;;;;;;15.42;100.00;95985.25;7392790;19;20951;-77
2023/06/19 00:28:19;;;;;;;13.97;12.67;;;;;;;15.46;100.00;95998.59;7399186;19;20559;-77
2023/06/19 00:30:46;;;;;;;12.30;11.20;;;;;;;15.17;100.00;96000.97;7400628;19;20351;-77
2023/06/19 00:33:13;;;;;;;15.47;14.13;;;;;;;14.82;100.00;95968.59;7394048;19;20964;-77
2023/06/19 00:35:41;;;;;;;12.80;11.83;;;;;;;14.72;100.00;95994.72;7393192;19;20407;-77
2023/06/19 00:38:09;;;;;;;16.13;13.80;;;;;;;14.97;100.00;95994.28;7397664;19;20508;-77
2023/06/19 00:40:36;;;;;;;13.07;11.63;;;;;;;15.23;100.00;95996.84;7396426;19;20341;-77
2023/06/19 00:43:03;;;;;;;17.77;13.30;;;;;;;15.19;100.00;95972.06;7395041;19;20439;-77
2023/06/19 00:45:30;;;;;;;14.27;12.93;;;;;;;15.47;100.00;95992.13;7397263;19;20402;-76
2023/06/19 00:47:59;;;;;;;15.50;12.77;;;;;;;15.41;100.00;95988.28;7396015;19;20346;-76
2023/06/19 00:50:29;;;;;;;13.60;12.40;;;;;;;15.70;100.00;96010.66;7396776;19;20897;-77
2023/06/19 00:52:58;;;;;;;15.20;13.60;;;;;;;15.83;100.00;96015.38;7395647;19;20412;-77
2023/06/19 00:55:28;;;;;;;14.47;13.17;;;;;;;15.62;100.00;96009.81;7395719;19;20429;-77
2023/06/19 00:57:55;;;;;;;13.60;12.03;;;;;;;15.61;100.00;96008.28;7395584;19;20393;-77
2023/06/19 01:00:22;;;;;;;14.63;12.53;;;;;;;15.29;100.00;95999.94;7396842;19;20345;-77
2023/06/19 01:02:50;;;;;;;13.83;12.07;;;;;;;15.02;100.00;96015.25;7395246;19;20398;-77
2023/06/19 01:05:19;;;;;;;17.43;13.10;;;;;;;14.66;100.00;96001.47;7395216;19;20454;-77
2023/06/19 01:08:06;;;;;;;13.33;11.90;;;;;;;14.95;100.00;96005.25;7394728;19;20402;-77
2023/06/19 01:10:38;;;;;;;13.07;11.97;;;;;;;15.45;100.00;96023.72;7396203;19;20379;-76
2023/06/19 01:13:11;;;;;;;16.03;12.40;;;;;;;15.48;100.00;96015.75;7395740;19;20409;-77
2023/06/19 01:15:41;;;;;;;15.13;13.93;;;;;;;15.43;100.00;96012.66;7395194;19;20417;-77
2023/06/19 01:18:11;;;;;;;13.50;12.30;;;;;;;15.21;100.00;95980.44;7403661;19;20406;-77
2023/06/19 01:20:38;;;;;;;12.90;11.80;;;;;;;15.24;100.00;96006.38;7402495;19;20387;-77
2023/06/19 01:23:11;;;;;;;12.77;11.53;;;;;;;14.99;100.00;96000.75;7403947;19;20398;-77
2023/06/19 01:25:39;;;;;;;13.10;11.90;;;;;;;14.54;100.00;95974.31;7400177;19;20442;-77
2023/06/19 01:28:11;;;;;;;14.20;12.87;;;;;;;14.89;100.00;95998.72;7404168;19;20398;-77
2023/06/19 01:30:42;;;;;;;12.87;11.67;;;;;;;14.99;100.00;96005.31;7402298;19;20381;-77
2023/06/19 01:33:22;;;;;;;12.63;11.53;;;;;;;14.84;100.00;96003.63;7403758;19;20715;-77
2023/06/19 01:35:50;;;;;;;13.13;12.00;;;;;;;14.71;100.00;95936.53;7399996;19;20797;-77
2023/06/19 01:38:21;;;;;;;13.67;12.43;;;;;;;15.21;100.00;95977.78;7400741;19;20903;-77
2023/06/19 01:40:50;;;;;;;14.10;13.00;;;;;;;15.36;100.00;95984.81;7403150;19;20358;-77
2023/06/19 01:43:17;;;;;;;14.83;13.40;;;;;;;15.45;100.00;95979.19;7400956;19;20458;-77
2023/06/19 01:45:45;;;;;;;14.13;12.73;;;;;;;15.58;100.00;95990.34;7400431;19;20412;-77
2023/06/19 01:48:13;;;;;;;14.70;13.40;;;;;;;15.20;100.00;95986.91;7401183;19;20343;-77
2023/06/19 01:50:45;;;;;;;14.13;12.70;;;;;;;15.15;100.00;96002.47;7404401;19;20691;-76
2023/06/19 01:53:12;;;;;;;15.47;14.17;;;;;;;14.55;100.00;95976.59;7401448;19;20379;-77
2023/06/19 01:55:39;;;;;;;15.50;14.00;;;;;;;14.63;100.00;95999.53;7400452;19;20429;-77
2023/06/19 01:58:06;;;;;;;14.50;13.13;;;;;;;14.60;100.00;95992.28;7400774;19;20726;-77
2023/06/19 02:00:37;;;;;;;15.20;13.40;;;;;;;14.75;100.00;95972.69;7403593;19;20377;-77
2023/06/19 02:03:04;;;;;;;12.77;11.57;;;;;;;15.07;100.00;95988.28;7401031;19;20355;-77
2023/06/19 02:05:31;;;;;;;14.30;13.00;;;;;;;15.19;100.00;95971.28;7400788;19;20442;-77
2023/06/19 02:08:00;;;;;;;13.70;12.60;;;;;;;15.37;100.00;95989.00;7400320;19;20391;-77
2023/06/19 02:10:27;;;;;;;14.87;13.30;;;;;;;15.45;100.00;96002.41;7402501;19;20803;-77
2023/06/19 02:12:55;;;;;;;13.13;12.13;;;;;;;15.52;100.00;96011.25;7401052;19;20904;-77
2023/06/19 02:15:22;;;;;;;13.60;12.20;;;;;;;15.15;100.00;95994.47;7397668;19;20419;-77
2023/06/19 02:17:49;;;;;;;13.30;12.10;;;;;;;15.01;100.00;95981.75;7400499;19;20929;-77
2023/06/19 02:20:16;;;;;;;14.70;13.40;;;;;;;14.91;100.00;95998.38;7399096;19;20407;-77
2023/06/19 02:22:42;;;;;;;13.57;12.37;;;;;;;14.99;100.00;95984.03;7400779;19;20420;-76
2023/06/19 02:25:09;;;;;;;14.93;13.73;;;;;;;15.24;100.00;96009.03;7398425;19;20431;-77
2023/06/19 02:27:36;;;;;;;14.43;13.13;;;;;;;15.21;100.00;95991.09;7399596;19;21003;-76
2023/06/19 02:30:04;;;;;;;14.00;12.73;;;;;;;15.37;100.00;96006.91;7400542;19;21025;-77
2023/06/19 02:32:31;;;;;;;15.80;14.07;;;;;;;15.37;100.00;95993.56;7399455;19;20431;-77
2023/06/19 02:34:58;;;;;;;14.33;12.47;;;;;;;15.36;100.00;95998.16;7399359;19;20378;-77
2023/06/19 02:37:25;;;;;;;13.80;12.57;;;;;;;15.21;100.00;95977.78;7402475;19;20347;-77
2023/06/19 02:39:52;;;;;;;14.00;12.80;;;;;;;15.47;100.00;96010.78;7399156;19;20363;-77
2023/06/19 02:42:19;;;;;;;14.20;12.90;;;;;;;15.33;100.00;96003.41;7400687;19;20410;-77
2023/06/19 02:44:46;;;;;;;15.10;13.73;;;;;;;15.21;100.00;96007.09;7397448;19;20414;-77
2023/06/19 02:47:13;;;;;;;17.10;13.40;;;;;;;15.17;100.00;95978.88;7398574;19;20386;-77
2023/06/19 02:49:40;;;;;;;15.00;13.67;;;;;;;15.50;100.00;96012.75;7395708;19;20443;-77
2023/06/19 02:52:07;;;;;;;15.03;13.60;;;;;;;15.31;100.00;96000.34;7400405;19;20410;-77
2023/06/19 02:54:34;;;;;;;15.57;14.00;;;;;;;15.35;100.00;95999.25;7399485;19;20422;-77
2023/06/19 02:57:01;;;;;;;15.70;14.20;;;;;;;15.41;100.00;96012.25;7400157;19;20940;-77
2023/06/19 02:59:28;;;;;;;18.40;14.20;;;;;;;15.53;100.00;96014.66;7400834;19;20393;-77
2023/06/19 03:01:55;;;;;;;15.20;13.70;;;;;;;15.36;100.00;96003.47;7402011;19;20715;-76
2023/06/19 03:04:22;;;;;;;14.70;12.90;;;;;;;15.33;100.00;95998.84;7400074;19;20381;-77
2023/06/19 03:06:54;;;;;;;22.97;13.30;;;;;;;15.12;100.00;96013.84;7400672;19;20371;-77
2023/06/19 03:09:21;;;;;;;16.63;14.93;;;;;;;15.18;100.00;95989.16;7397420;19;20373;-77
2023/06/19 03:11:48;;;;;;;16.37;12.97;;;;;;;15.32;100.00;96007.97;7400364;19;20408;-77
2023/06/19 03:14:15;;;;;;;22.27;14.50;;;;;;;15.24;100.00;96025.03;7398281;19;20373;-77
2023/06/19 03:16:42;;;;;;;14.47;12.93;;;;;;;15.05;100.00;96014.50;7401050;19;20898;-77
2023/06/19 03:19:09;;;;;;;15.07;13.73;;;;;;;15.30;100.00;96031.56;7399610;19;20379;-77
2023/06/19 03:21:36;;;;;;;16.80;15.07;;;;;;;15.31;100.00;96019.75;7405825;19;20429;-77
2023/06/19 03:24:03;;;;;;;15.87;14.23;;;;;;;15.20;100.00;96034.84;7402889;19;20900;-78
2023/06/19 03:26:31;;;;;;;15.60;14.10;;;;;;;15.22;100.00;96032.59;7406219;19;20357;-77
2023/06/19 03:29:01;;;;;;;16.67;15.00;;;;;;;15.20;100.00;96018.09;7403035;19;20453;-78
2023/06/19 03:31:36;;;;;;;16.87;14.27;;;;;;;15.24;100.00;96024.25;7403543;19;20374;-78
2023/06/19 03:34:03;;;;;;;16.77;15.37;;;;;;;15.15;100.00;96024.53;7401095;19;20386;-77
2023/06/19 03:36:32;;;;;;;16.03;14.57;;;;;;;15.23;100.00;96030.72;7399711;19;20381;-77
2023/06/19 03:39:06;;;;;;;15.50;14.20;;;;;;;15.19;100.00;96028.00;7395358;19;20700;-76
2023/06/19 03:41:33;;;;;;;15.60;14.20;;;;;;;15.52;100.00;96037.13;7409256;19;20383;-77
2023/06/19 03:44:00;;;;;;;14.90;13.50;;;;;;;15.49;100.00;96019.19;7426662;19;20403;-77
2023/06/19 03:46:27;;;;;;;16.70;15.30;;;;;;;15.46;100.00;96027.91;7428060;19;20390;-77
2023/06/19 03:48:54;;;;;;;17.67;15.97;;;;;;;15.77;100.00;96064.81;7427783;19;20401;-78
2023/06/19 03:51:21;;;;;;;19.50;14.43;;;;;;;15.35;100.00;96052.53;7429520;19;20394;-78
2023/06/19 03:53:49;;;;;;;16.77;15.27;;;;;;;15.06;100.00;96054.09;7433147;19;20397;-78
2023/06/19 03:56:16;;;;;;;18.73;14.13;;;;;;;15.07;100.00;96049.53;7431384;19;20514;-77
2023/06/19 03:58:43;;;;;;;16.30;14.70;;;;;;;15.05;100.00;96054.44;7432762;19;20382;-77
2023/06/19 04:01:11;;;;;;;16.63;15.13;;;;;;;15.04;100.00;96028.94;7430620;19;20463;-78
2023/06/19 04:03:38;;;;;;;16.00;14.43;;;;;;;15.10;100.00;96053.38;7431804;19;20372;-77
2023/06/19 04:06:08;;;;;;;16.80;15.00;;;;;;;15.02;100.00;96052.50;7420280;19;20455;-77
2023/06/19 04:08:38;;;;;;;20.33;15.63;;;;;;;14.92;100.00;96021.97;7405691;19;20392;-77
2023/06/19 04:11:05;;;;;;;16.77;15.37;;;;;;;15.00;100.00;96018.28;7403486;19;20910;-77
2023/06/19 04:13:32;;;;;;;15.90;14.40;;;;;;;15.14;100.00;96025.66;7402630;19;20402;-77
2023/06/19 04:15:59;;;;;;;15.53;14.13;;;;;;;15.12;100.00;96027.94;7399199;19;20739;-77
2023/06/19 04:18:27;;;;;;;15.27;13.97;;;;;;;14.56;100.00;95986.16;7398988;19;20917;-77
2023/06/19 04:20:55;;;;;;;17.27;15.70;;;;;;;15.26;100.00;96052.06;7398244;19;20378;-77
2023/06/19 04:23:22;;;;;;;15.77;14.03;;;;;;;15.42;100.00;96053.75;7399243;19;20376;-77
2023/06/19 04:25:49;;;;;;;16.13;14.40;;;;;;;15.51;100.00;96055.00;7395576;19;20407;-77
2023/06/19 04:28:16;;;;;;;17.10;15.40;;;;;;;15.63;100.00;96044.13;7398256;19;20350;-77
2023/06/19 04:30:43;;;;;;;16.53;15.13;;;;;;;15.65;100.00;96057.84;7396966;19;20382;-77
2023/06/19 04:33:10;;;;;;;16.63;15.10;;;;;;;15.75;100.00;96066.31;7394786;19;20386;-77
2023/06/19 04:35:39;;;;;;;17.30;15.80;;;;;;;15.99;100.00;96073.78;7395869;19;20439;-77
2023/06/19 04:38:08;;;;;;;15.70;14.40;;;;;;;16.12;100.00;96082.28;7397042;19;20403;-77
2023/06/19 04:40:35;;;;;;;16.03;14.53;;;;;;;15.98;100.00;96063.50;7400420;19;20359;-77
2023/06/19 04:43:02;;;;;;;15.70;14.30;;;;;;;16.09;100.00;96070.44;7396532;19;20361;-77
2023/06/19 04:45:29;;;;;;;15.40;14.00;;;;;;;16.19;100.00;96066.34;7397905;19;20415;-77
2023/06/19 04:47:56;;;;;;;16.47;15.10;;;;;;;16.46;100.00;96065.03;7393776;19;20375;-77
2023/06/19 04:50:23;;;;;;;16.40;14.90;;;;;;;16.69;100.00;96072.06;7403236;19;20375;-77
2023/06/19 04:52:50;;;;;;;15.40;14.20;;;;;;;16.54;100.00;96063.16;7401613;19;20412;-77
2023/06/19 04:55:18;;;;;;;15.37;14.07;;;;;;;16.59;100.00;96072.75;7402561;19;20418;-77
2023/06/19 04:57:45;;;;;;;16.43;14.87;;;;;;;16.68;100.00;96078.56;7402691;19;20419;-77
2023/06/19 05:00:14;;;;;;;17.67;16.17;;;;;;;17.03;100.00;96064.66;7407512;19;20354;-77
2023/06/19 05:02:46;;;;;;;15.87;14.50;;;;;;;16.92;100.00;96074.50;7412613;19;20381;-77
2023/06/19 05:05:14;;;;;;;16.80;15.20;;;;;;;16.96;100.00;96102.78;7437032;19;20421;-78
2023/06/19 05:07:42;;;;;;;15.80;14.47;;;;;;;17.26;100.00;96096.44;7438001;19;20420;-78
2023/06/19 05:10:10;;;;;;;18.87;17.17;;;;;;;17.17;100.00;96072.72;7413210;19;20899;-77
2023/06/19 05:12:37;;;;;;;16.00;14.67;;;;;;;17.44;100.00;96098.06;7405122;19;20396;-77
2023/06/19 05:15:04;;;;;;;16.67;15.17;;;;;;;17.24;100.00;96088.03;7400161;19;20430;-76
2023/06/19 05:17:31;;;;;;;16.00;14.50;;;;;;;17.30;100.00;96098.00;7403450;19;20404;-77
2023/06/19 05:19:58;;;;;;;19.33;17.53;;;;;;;17.44;100.00;96067.88;7404008;19;20423;-77
2023/06/19 05:22:26;;;;;;;18.23;16.60;;;;;;;17.88;100.00;96091.72;7403497;19;20391;-77
2023/06/19 05:24:53;;;;;;;16.07;14.47;;;;;;;18.15;100.00;96100.16;7402810;19;20434;-76
2023/06/19 05:27:21;;;;;;;14.53;13.33;;;;;;;18.42;100.00;96110.50;7402707;19;20418;-77
2023/06/19 05:29:48;;;;;;;14.90;13.60;;;;;;;18.22;100.00;96083.38;7402086;19;20380;-77
2023/06/19 05:32:14;;;;;;;14.50;13.30;;;;;;;17.90;100.00;96091.38;7401281;19;20438;-77
2023/06/19 05:34:41;;;;;;;12.87;11.77;;;;;;;18.08;100.00;96113.56;7400247;19;20427;-76
2023/06/19 05:37:08;;;;;;;14.67;13.47;;;;;;;18.25;100.00;96128.09;7399513;19;20399;-77
2023/06/19 05:39:35;;;;;;;13.67;12.37;;;;;;;18.14;100.00;96121.97;7403360;19;20407;-77
2023/06/19 05:42:02;;;;;;;13.87;12.67;;;;;;;18.13;100.00;96123.88;7402307;19;20377;-77
2023/06/19 05:44:30;;;;;;;13.20;12.00;;;;;;;18.19;100.00;96125.03;7398095;19;20411;-76
2023/06/19 05:46:57;;;;;;;15.07;13.70;;;;;;;18.19;100.00;96126.97;7402135;19;20368;-77
2023/06/19 05:49:23;;;;;;;14.20;13.00;;;;;;;18.12;100.00;96121.56;7398561;19;20358;-77
2023/06/19 05:51:50;;;;;;;15.20;13.80;;;;;;;18.06;100.00;96117.75;7401596;19;20372;-77
2023/06/19 05:54:17;;;;;;;14.70;13.50;;;;;;;18.09;100.00;96120.44;7401583;19;20382;-76
2023/06/19 05:56:44;;;;;;;14.77;13.37;;;;;;;18.16;100.00;96104.41;7401819;19;20391;-77
2023/06/19 05:59:14;;;;;;;14.00;12.63;;;;;;;18.25;100.00;96128.09;7400554;19;20360;-77
2023/06/19 06:01:41;;;;;;;13.90;12.60;;;;;;;18.05;100.00;96108.97;7401573;19;20900;-77
2023/06/19 06:04:08;;;;;;;14.23;13.03;;;;;;;18.26;100.00;96134.97;7400883;19;20397;-77
2023/06/19 06:06:35;;;;;;;13.43;12.20;;;;;;;18.02;100.00;96102.44;7404632;19;20348;-77
2023/06/19 06:09:02;;;;;;;12.00;11.00;;;;;;;18.62;100.00;96130.41;7400354;19;20719;-77
2023/06/19 06:11:29;;;;;;;13.30;12.27;;;;;;;18.98;100.00;96117.81;7404394;19;20368;-77
2023/06/19 06:13:56;;;;;;;15.27;13.77;;;;;;;19.61;100.00;96139.47;7401007;19;20368;-77
2023/06/19 06:16:23;;;;;;;13.97;11.87;;;;;;;19.56;100.00;96127.22;7404821;19;20340;-77
2023/06/19 06:18:50;;;;;;;14.30;13.10;;;;;;;19.64;100.00;96117.25;7402840;19;20390;-77
2023/06/19 06:21:17;;;;;;;14.30;13.00;;;;;;;20.26;100.00;96133.38;7405098;19;20404;-77
2023/06/19 06:23:44;;;;;;;13.53;11.93;;;;;;;20.43;100.00;96136.38;7404420;19;20721;-77
2023/06/19 06:26:11;;;;;;;13.10;11.80;;;;;;;20.45;100.00;96140.22;7402973;19;20416;-77
2023/06/19 06:28:39;;;;;;;15.73;14.30;;;;;;;19.84;100.00;96150.50;7401786;19;20353;-77
2023/06/19 06:31:06;;;;;;;13.53;12.50;;;;;;;20.01;100.00;96144.25;7405823;19;20344;-77
2023/06/19 06:33:34;;;;;;;14.03;12.83;;;;;;;20.26;99.90;96151.41;7403348;19;20781;-77
2023/06/19 06:36:01;;;;;;;13.70;12.50;;;;;;;20.60;99.68;96165.03;7401314;19;20395;-77
2023/06/19 06:38:28;;;;;;;12.63;11.33;;;;;;;20.92;98.30;96157.47;7405888;19;20345;-77
2023/06/19 06:40:55;;;;;;;12.80;11.60;;;;;;;20.90;95.42;96165.19;7406935;19;20362;-77
2023/06/19 06:43:22;;;;;;;13.50;12.30;;;;;;;21.03;92.32;96170.06;7425406;19;20405;-79
2023/06/19 06:45:49;;;;;;;13.33;12.33;;;;;;;21.04;93.29;96164.28;7434200;19;20396;-78
2023/06/19 06:48:16;;;;;;;13.30;11.90;;;;;;;20.72;93.66;96134.25;7431484;19;20407;-78
2023/06/19 06:50:43;;;;;;;15.13;11.77;;;;;;;21.05;95.02;96173.88;7403784;19;20873;-77
2023/06/19 06:53:10;;;;;;;14.90;13.50;;;;;;;20.91;94.31;96155.19;7400156;19;20418;-77
2023/06/19 06:55:37;;;;;;;13.23;12.13;;;;;;;20.90;93.68;96170.56;7397787;19;20429;-77
2023/06/19 06:58:05;;;;;;;14.13;12.73;;;;;;;20.64;97.14;96158.47;7399817;19;20404;-77
2023/06/19 07:00:32;;;;;;;12.93;11.83;;;;;;;20.67;97.35;96146.94;7403869;19;20372;-77
2023/06/19 07:02:59;;;;;;;12.40;11.40;;;;;;;20.87;96.57;96159.84;7400872;19;20596;-77
2023/06/19 07:05:26;;;;;;;16.50;12.83;;;;;;;21.03;95.68;96176.19;7400818;19;20442;-77
2023/06/19 07:07:53;;;;;;;12.77;11.70;;;;;;;21.16;96.33;96160.34;7401894;19;20369;-77
2023/06/19 07:10:20;;;;;;;13.30;11.40;;;;;;;21.35;94.89;96159.00;7400347;19;20426;-77
2023/06/19 07:12:48;;;;;;;13.23;12.13;;;;;;;21.69;93.60;96200.16;7401872;19;20380;-78
2023/06/19 07:15:15;;;;;;;14.60;13.17;;;;;;;21.87;95.07;96177.66;7412241;19;21265;-79
2023/06/19 07:17:46;;;;;;;13.50;12.10;;;;;;;22.13;91.83;96171.59;7409538;19;20496;-78
2023/06/19 07:20:15;;;;;;;11.23;10.13;;;;;;;22.60;88.07;96179.78;7412174;19;20399;-78
2023/06/19 07:22:42;;;;;;;13.43;10.93;;;;;;;22.57;87.57;96140.16;7409706;19;20806;-78
2023/06/19 07:25:11;;;;;;;11.67;10.70;;;;;;;22.80;84.54;96183.31;7408557;19;20925;-78
2023/06/19 07:27:40;;;;;;;11.63;10.63;;;;;;;22.97;83.67;96203.88;7410857;19;20383;-78
2023/06/19 07:30:08;;;;;;;10.77;9.87;;;;;;;22.95;81.93;96203.50;7407313;19;20478;-77
2023/06/19 07:32:35;;;;;;;12.10;10.90;;;;;;;22.59;82.05;96191.75;7407689;19;20427;-77
2023/06/19 07:35:03;;;;;;;11.37;10.47;;;;;;;22.32;80.57;96137.84;7407482;19;20435;-77
2023/06/19 07:37:30;;;;;;;11.70;10.70;;;;;;;22.89;82.42;96185.53;7406369;19;20947;-77
2023/06/19 07:40:00;;;;;;;11.57;10.47;;;;;;;22.97;81.81;96176.13;7409495;19;20383;-77
2023/06/19 07:42:27;;;;;;;11.70;10.70;;;;;;;23.15;82.39;96189.34;7410591;19;20395;-77
2023/06/19 07:44:54;;;;;;;12.70;11.50;;;;;;;22.91;78.93;96167.75;7399524;19;20755;-77
2023/06/19 07:47:21;;;;;;;12.13;10.87;;;;;;;23.20;79.68;96173.44;7400090;19;20370;-77
2023/06/19 07:49:48;;;;;;;12.43;11.40;;;;;;;23.55;79.78;96174.72;7400086;19;20384;-78
2023/06/19 07:52:15;;;;;;;11.53;10.43;;;;;;;24.54;77.40;96206.31;7400659;19;20545;-77
2023/06/19 07:54:55;;;;;;;12.27;11.17;;;;;;;24.47;76.93;96198.38;7398413;19;20439;-77
2023/06/19 07:57:24;;;;;;;12.17;10.97;;;;;;;23.90;76.81;96167.13;7401193;19;20378;-77
2023/06/19 07:59:53;;;;;;;11.70;10.57;;;;;;;23.87;78.54;96190.31;7400628;19;20411;-78
2023/06/19 08:02:20;;;;;;;10.93;10.13;;;;;;;23.12;78.43;96176.69;7400376;19;20922;-78
2023/06/19 08:04:47;;;;;;;20.70;11.67;;;;;;;22.91;81.38;96192.03;7426170;19;20444;-78
2023/06/19 08:07:14;;;;;;;11.63;10.67;;;;;;;23.03;81.34;96187.22;7429990;19;20402;-78
2023/06/19 08:09:41;;;;;;;13.93;12.73;;;;;;;22.75;82.03;96189.19;7427864;19;20402;-79
2023/06/19 08:12:08;;;;;;;11.80;10.80;;;;;;;22.65;82.17;96179.31;7398083;19;20387;-77
2023/06/19 08:14:35;;;;;;;13.20;11.10;;;;;;;22.65;83.08;96184.72;7399374;19;20418;-77
2023/06/19 08:17:03;;;;;;;13.50;12.13;;;;;;;22.70;83.85;96176.94;7399158;19;20398;-77
2023/06/19 08:19:30;;;;;;;12.17;10.70;;;;;;;22.71;84.21;96175.00;7398995;19;20398;-77
2023/06/19 08:21:57;;;;;;;11.10;10.30;;;;;;;22.77;85.94;96218.41;7397303;19;20376;-77
2023/06/19 08:24:24;;;;;;;12.43;10.80;;;;;;;22.79;85.44;96194.50;7396615;19;20412;-77
2023/06/19 08:26:52;;;;;;;13.70;12.57;;;;;;;22.81;85.61;96192.16;7396926;19;20996;-77
2023/06/19 08:29:19;;;;;;;13.47;12.10;;;;;;;22.90;86.17;96200.53;7395505;19;20351;-78
2023/06/19 08:31:46;;;;;;;13.13;12.10;;;;;;;23.11;86.03;96215.63;7396128;19;20447;-77
2023/06/19 08:34:13;;;;;;;12.87;11.87;;;;;;;22.93;85.53;96184.28;7398085;19;20953;-78
2023/06/19 08:36:43;;;;;;;13.00;11.87;;;;;;;23.07;85.83;96182.53;7395236;19;20365;-77
2023/06/19 08:39:10;;;;;;;12.60;11.40;;;;;;;23.87;85.41;96209.22;7399140;19;20390;-77
2023/06/19 08:41:38;;;;;;;11.90;10.80;;;;;;;24.21;80.43;96212.81;7396816;19;20369;-77
2023/06/19 08:44:05;;;;;;;11.83;10.83;;;;;;;24.30;79.54;96216.47;7397798;19;20381;-77
2023/06/19 08:46:34;;;;;;;11.77;10.87;;;;;;;24.50;79.70;96207.59;7398911;19;20449;-78
2023/06/19 08:49:01;;;;;;;12.90;11.83;;;;;;;24.76;77.56;96222.81;7399903;19;20388;-77
2023/06/19 08:51:30;;;;;;;11.60;10.50;;;;;;;24.22;78.02;96211.63;7395193;19;20404;-77
2023/06/19 08:54:05;;;;;;;11.50;10.50;;;;;;;24.12;79.71;96210.66;7397788;19;20391;-77
2023/06/19 08:56:34;;;;;;;10.10;9.20;;;;;;;24.37;78.72;96210.19;7396193;19;20358;-77
2023/06/19 08:59:28;;;;;;;9.90;9.03;;;;;;;24.61;78.33;96224.34;7397990;19;20371;-78
2023/06/19 09:01:56;;;;;;;11.10;10.03;;;;;;;24.09;78.99;96225.78;7397885;19;20430;-77
2023/06/19 09:04:27;;;;;;;11.70;10.50;;;;;;;23.84;81.61;96201.19;7396017;19;20418;-77
2023/06/19 09:06:57;;;;;;;9.73;8.83;;;;;;;24.02;80.10;96211.63;7398626;19;20874;-78
2023/06/19 09:09:26;;;;;;;9.63;8.83;;;;;;;24.09;80.82;96203.41;7396413;19;20399;-77
2023/06/19 09:12:08;;;;;;;9.67;8.87;;;;;;;24.12;79.61;96232.28;7400352;19;20406;-78
2023/06/19 09:14:40;;;;;;;10.57;9.40;;;;;;;24.56;79.00;96232.94;7396165;19;20493;-77
2023/06/19 09:17:11;;;;;;;10.77;9.87;;;;;;;24.92;79.50;96241.75;7395429;19;20410;-78
2023/06/19 09:19:47;;;;;;;9.70;8.83;;;;;;;24.52;77.51;96227.59;7396379;19;20432;-78
2023/06/19 09:22:18;;;;;;;9.73;8.93;;;;;;;24.45;78.39;96217.72;7395379;19;20396;-78
2023/06/19 09:24:48;;;;;;;9.97;9.23;;;;;;;24.59;78.72;96234.81;7396650;19;20407;-77
2023/06/19 09:27:18;;;;;;;9.27;8.57;;;;;;;24.28;78.60;96188.31;7397741;19;20453;-78
2023/06/19 09:29:50;;;;;;;9.60;8.70;;;;;;;24.62;77.60;96232.03;7397622;19;20372;-78
2023/06/19 09:32:19;;;;;;;9.57;8.87;;;;;;;24.58;76.80;96239.47;7397110;19;20772;-78
2023/06/19 09:34:50;;;;;;;8.00;7.30;;;;;;;24.27;76.71;96209.19;7396754;19;20418;-77
2023/06/19 09:37:28;;;;;;;8.83;8.13;;;;;;;24.30;77.13;96223.81;7403186;19;20441;-77
2023/06/19 09:40:01;;;;;;;8.60;7.90;;;;;;;24.57;77.67;96235.22;7403858;19;20386;-78
2023/06/19 09:42:33;;;;;;;8.90;7.03;;;;;;;24.64;76.53;96220.78;7406825;19;20387;-78
2023/06/19 09:45:01;;;;;;;8.90;8.20;;;;;;;24.65;77.08;96227.72;7401639;19;20407;-78
2023/06/19 09:47:39;;;;;;;8.53;7.77;;;;;;;24.90;76.82;96235.25;7405267;19;20744;-78
2023/06/19 09:50:07;;;;;;;16.37;9.33;;;;;;;24.76;76.87;96230.94;7403996;19;20344;-78
2023/06/19 09:52:34;;;;;;;9.87;8.90;;;;;;;25.72;77.30;96209.66;7405199;19;20411;-78
2023/06/19 09:55:05;;;;;;;9.07;8.37;;;;;;;25.74;75.48;96214.63;7402129;19;20514;-78
2023/06/19 09:57:33;;;;;;;9.17;8.47;;;;;;;25.58;75.72;96220.84;7403360;19;20400;-78
2023/06/19 10:00:09;;;;;;;10.10;8.13;;;;;;;25.44;74.69;96210.38;7406622;19;20452;-78
2023/06/19 10:02:45;;;;;;;8.80;8.00;;;;;;;25.10;74.77;96225.13;7403802;19;20375;-78
2023/06/19 10:05:13;;;;;;;9.37;8.50;;;;;;;25.24;75.12;96207.78;7402859;19;20429;-78
2023/06/19 10:07:43;;;;;;;9.10;8.30;;;;;;;25.62;75.56;96221.50;7402740;19;20396;-78
2023/06/19 10:10:21;;;;;;;8.33;7.40;;;;;;;25.76;75.12;96237.41;7402973;19;20414;-78
2023/06/19 10:12:49;;;;;;;9.90;8.90;;;;;;;25.42;75.06;96212.75;7402783;19;20398;-78
2023/06/19 10:15:22;;;;;;;8.20;7.43;;;;;;;25.28;75.07;96239.00;7398948;19;20444;-77
2023/06/19 10:17:53;;;;;;;8.87;8.03;;;;;;;25.11;75.66;96237.50;7404957;19;20423;-78
2023/06/19 10:20:25;;;;;;;7.97;7.37;;;;;;;25.46;75.92;96241.25;7403476;19;20359;-78
2023/06/19 10:23:04;;;;;;;9.20;8.40;;;;;;;25.51;74.71;96238.03;7405802;19;20877;-77
2023/06/19 10:25:39;;;;;;;8.50;7.70;;;;;;;25.39;75.85;96229.84;7397747;19;20441;-77
2023/06/19 10:28:21;;;;;;;9.47;8.67;;;;;;;25.49;76.32;96237.69;7401126;19;20398;-77
2023/06/19 10:31:11;;;;;;;8.67;8.00;;;;;;;25.69;74.61;96234.13;7398995;19;20386;-76
2023/06/19 10:33:41;;;;;;;9.23;8.53;;;;;;;25.98;74.62;96234.88;7397856;19;20431;-77
2023/06/19 10:36:14;;;;;;;9.20;8.40;;;;;;;26.37;74.31;96239.22;7398567;19;20492;-77
2023/06/19 10:38:46;;;;;;;9.10;8.30;;;;;;;26.79;72.30;96231.75;7398314;19;20386;-76
2023/06/19 10:41:18;;;;;;;8.53;7.93;;;;;;;26.88;71.46;96225.66;7401775;19;20370;-76
2023/06/19 10:44:06;;;;;;;9.10;8.20;;;;;;;27.49;71.80;96221.75;7399363;19;20416;-76
2023/06/19 10:46:36;;;;;;;9.57;8.67;;;;;;;27.66;70.36;96187.06;7398068;19;20405;-76
2023/06/19 10:49:05;;;;;;;8.50;7.70;;;;;;;27.78;70.43;96226.22;7398937;19;20421;-76
2023/06/19 10:51:35;;;;;;;7.73;7.13;;;;;;;27.74;68.83;96231.78;7397633;19;20897;-76
2023/06/19 10:54:03;;;;;;;7.30;6.80;;;;;;;26.85;69.55;96225.78;7401334;19;20382;-76
2023/06/19 10:56:29;;;;;;;8.60;7.90;;;;;;;26.47;70.78;96223.84;7395947;19;20362;-76
2023/06/19 10:59:09;;;;;;;7.53;6.93;;;;;;;26.93;70.94;96216.97;7399300;19;20903;-76
2023/06/19 11:01:40;;;;;;;8.20;7.40;;;;;;;26.94;69.56;96226.63;7399960;19;20367;-76
2023/06/19 11:04:09;;;;;;;7.83;7.13;;;;;;;26.63;70.75;96225.69;7398979;19;20531;-76
2023/06/19 11:06:37;;;;;;;8.63;7.97;;;;;;;26.54;71.66;96231.75;7398539;19;20395;-76
2023/06/19 11:09:06;;;;;;;8.53;7.83;;;;;;;26.82;70.74;96221.97;7396289;19;20410;-77
2023/06/19 11:11:45;;;;;;;7.60;7.00;;;;;;;27.16;69.80;96201.53;7398041;19;20345;-77
2023/06/19 11:14:13;;;;;;;8.57;7.83;;;;;;;26.69;69.91;96223.94;7397987;19;20390;-76
2023/06/19 11:16:49;;;;;;;7.77;7.17;;;;;;;26.41;72.78;96193.00;7398309;19;20369;-76
2023/06/19 11:19:19;;;;;;;6.63;6.13;;;;;;;26.43;70.85;96185.19;7397414;19;20402;-76
2023/06/19 11:21:48;;;;;;;7.57;6.97;;;;;;;26.56;70.84;96221.22;7399064;19;20991;-77
2023/06/19 11:24:16;;;;;;;6.90;6.30;;;;;;;26.41;71.36;96215.47;7396923;19;20942;-77